createdAt,value
2023-01-20T00:02:13.713Z,20.13
2023-01-20T00:04:40.308Z,21.37
2023-01-20T00:07:06.874Z,22.10
2023-01-20T00:09:33.480Z,21.37
2023-01-20T00:12:00.153Z,21.97
2023-01-20T00:14:29.904Z,23.60
2023-01-20T00:16:57.374Z,22.30
2023-01-20T00:19:24.004Z,23.30
2023-01-20T00:21:50.674Z,24.03
2023-01-20T00:24:17.288Z,24.43
2023-01-20T00:26:43.879Z,25.20
2023-01-20T00:29:10.509Z,23.33
2023-01-20T00:31:37.177Z,23.33
2023-01-20T00:34:04.226Z,23.13
2023-01-20T00:36:32.277Z,23.70
2023-01-20T00:38:58.898Z,23.57
2023-01-20T00:41:25.493Z,25.10
2023-01-20T00:43:52.089Z,24.40
2023-01-20T00:46:18.708Z,23.07
2023-01-20T00:48:45.328Z,22.47
2023-01-20T00:51:12.629Z,23.80
2023-01-20T00:53:39.248Z,25.43
2023-01-20T00:56:06.244Z,24.40
2023-01-20T00:58:32.893Z,24.97
2023-01-20T01:00:59.959Z,24.50
2023-01-20T01:03:30.152Z,23.07
2023-01-20T01:06:08.234Z,22.27
2023-01-20T01:08:35.315Z,22.17
2023-01-20T01:11:02.160Z,23.00
2023-01-20T01:13:28.753Z,25.30
2023-01-20T01:15:55.429Z,22.80
2023-01-20T01:18:22.075Z,23.60
2023-01-20T01:20:48.678Z,22.40
2023-01-20T01:23:15.348Z,21.93
2023-01-20T01:25:41.916Z,22.50
2023-01-20T01:28:10.578Z,21.10
2023-01-20T01:30:37.136Z,22.07
2023-01-20T01:33:03.768Z,22.37
2023-01-20T01:35:30.306Z,20.83
2023-01-20T01:37:56.939Z,23.97
2023-01-20T01:40:23.510Z,24.20
2023-01-20T01:42:50.073Z,22.60
2023-01-20T01:45:21.286Z,26.80
2023-01-20T01:47:56.623Z,22.20
2023-01-20T01:50:39.618Z,22.67
2023-01-20T01:53:09.133Z,21.70
2023-01-20T01:55:39.240Z,23.30
2023-01-20T01:58:09.056Z,22.20
2023-01-20T02:00:36.504Z,22.13
2023-01-20T02:03:03.933Z,22.43
2023-01-20T02:05:30.967Z,23.03
2023-01-20T02:07:58.836Z,22.57
2023-01-20T02:10:26.087Z,24.73
2023-01-20T02:12:53.174Z,24.03
2023-01-20T02:15:40.371Z,24.40
2023-01-20T02:18:35.867Z,22.70
2023-01-20T02:21:29.839Z,23.00
2023-01-20T02:24:11.784Z,22.73
2023-01-20T02:26:47.448Z,24.20
2023-01-20T02:29:26.169Z,23.30
2023-01-20T02:32:23.082Z,21.47
2023-01-20T02:35:06.487Z,22.90
2023-01-20T02:37:46.857Z,23.10
2023-01-20T02:40:16.961Z,21.93
2023-01-20T02:46:53.519Z,21.00
2023-01-20T02:49:32.637Z,21.20
2023-01-20T02:52:20.846Z,24.70
2023-01-20T02:54:52.275Z,22.33
2023-01-20T02:57:25.896Z,21.40
2023-01-20T02:59:56.636Z,19.23
2023-01-20T03:02:25.888Z,22.27
2023-01-20T03:05:01.235Z,22.40
2023-01-20T03:07:31.198Z,21.23
2023-01-20T03:10:01.294Z,22.20
2023-01-20T03:12:45.451Z,23.10
2023-01-20T03:15:13.225Z,21.03
2023-01-20T03:17:40.153Z,24.97
2023-01-20T03:20:07.459Z,23.63
2023-01-20T03:22:34.110Z,23.37
2023-01-20T03:25:02.222Z,21.30
2023-01-20T03:27:28.808Z,23.20
2023-01-20T03:29:55.368Z,22.23
2023-01-20T03:32:26.576Z,22.70
2023-01-20T03:34:59.230Z,23.17
2023-01-20T03:37:25.873Z,24.97
2023-01-20T03:39:52.601Z,22.83
2023-01-20T03:42:31.552Z,24.27
2023-01-20T03:45:05.328Z,22.37
2023-01-20T03:47:43.271Z,22.70
2023-01-20T03:50:18.649Z,24.33
2023-01-20T03:53:01.495Z,23.20
2023-01-20T03:55:43.960Z,21.73
2023-01-20T03:58:14.994Z,22.30
2023-01-20T04:00:46.121Z,19.60
2023-01-20T04:03:19.082Z,19.50
2023-01-20T04:05:48.404Z,22.07
2023-01-20T04:08:17.753Z,20.93
2023-01-20T04:10:48.129Z,20.03
2023-01-20T04:13:18.292Z,20.77
2023-01-20T04:15:46.051Z,19.00
2023-01-20T04:18:18.071Z,17.67
2023-01-20T04:20:47.984Z,18.60
2023-01-20T04:23:22.638Z,20.43
2023-01-20T04:25:49.324Z,18.47
2023-01-20T04:28:15.912Z,21.50
2023-01-20T04:30:42.556Z,19.67
2023-01-20T04:33:09.128Z,23.17
2023-01-20T04:35:35.723Z,24.13
2023-01-20T04:38:02.366Z,21.00
2023-01-20T04:40:29.013Z,20.20
2023-01-20T04:42:55.715Z,21.00
2023-01-20T04:45:22.267Z,18.90
2023-01-20T04:47:48.849Z,18.10
2023-01-20T04:50:17.769Z,14.97
2023-01-20T04:52:44.631Z,15.20
2023-01-20T04:55:12.080Z,13.50
2023-01-20T04:57:38.744Z,12.70
2023-01-20T05:00:12.941Z,13.10
2023-01-20T05:02:39.517Z,12.33
2023-01-20T05:05:06.429Z,12.37
2023-01-20T05:07:32.985Z,12.07
2023-01-20T05:09:59.592Z,13.37
2023-01-20T05:12:26.571Z,13.57
2023-01-20T05:14:53.227Z,14.97
2023-01-20T05:17:19.802Z,13.10
2023-01-20T05:19:46.405Z,14.07
2023-01-20T05:22:13.044Z,17.10
2023-01-20T05:24:39.643Z,17.77
2023-01-20T05:27:06.275Z,20.27
2023-01-20T05:29:32.883Z,18.10
2023-01-20T05:31:59.487Z,19.10
2023-01-20T05:34:26.153Z,18.93
2023-01-20T05:36:53.989Z,18.73
2023-01-20T05:39:21.493Z,17.77
2023-01-20T05:41:48.560Z,16.60
2023-01-20T05:44:16.025Z,18.50
2023-01-20T05:46:42.777Z,18.57
2023-01-20T05:49:14.750Z,17.07
2023-01-20T05:51:41.359Z,17.83
2023-01-20T05:54:07.938Z,17.50
2023-01-20T05:56:34.545Z,17.07
2023-01-20T05:59:01.162Z,16.67
2023-01-20T06:01:28.056Z,16.40
2023-01-20T06:03:54.830Z,17.33
2023-01-20T06:06:21.439Z,16.77
2023-01-20T06:08:49.465Z,18.00
2023-01-20T06:11:17.791Z,17.20
2023-01-20T06:13:46.372Z,17.43
2023-01-20T06:16:13.005Z,17.40
2023-01-20T06:18:39.676Z,16.20
2023-01-20T06:21:06.421Z,16.17
2023-01-20T06:23:33.081Z,16.33
2023-01-20T06:26:05.891Z,17.83
2023-01-20T06:28:33.297Z,16.30
2023-01-20T06:31:12.912Z,16.37
2023-01-20T06:33:40.436Z,17.47
2023-01-20T06:36:07.624Z,14.73
2023-01-20T06:38:35.250Z,15.70
2023-01-20T06:41:04.509Z,14.40
2023-01-20T06:43:33.863Z,15.33
2023-01-20T06:46:02.277Z,15.17
2023-01-20T06:48:29.343Z,14.90
2023-01-20T06:51:13.161Z,15.17
2023-01-20T06:53:40.251Z,13.50
2023-01-20T06:56:07.730Z,15.10
2023-01-20T06:58:34.349Z,13.97
2023-01-20T07:01:11.342Z,12.97
2023-01-20T07:03:38.211Z,13.93
2023-01-20T07:06:14.029Z,13.80
2023-01-20T07:08:40.597Z,15.90
2023-01-20T07:11:07.186Z,16.00
2023-01-20T07:13:33.752Z,15.50
2023-01-20T07:16:00.370Z,14.20
2023-01-20T07:18:26.922Z,15.33
2023-01-20T07:20:55.183Z,15.13
2023-01-20T07:23:22.792Z,13.73
2023-01-20T07:26:01.105Z,15.33
2023-01-20T07:28:27.880Z,16.07
2023-01-20T07:30:54.733Z,14.10
2023-01-20T07:33:21.772Z,15.17
2023-01-20T07:35:53.195Z,14.00
2023-01-20T07:38:20.323Z,15.93
2023-01-20T07:40:46.870Z,14.97
2023-01-20T07:43:13.734Z,16.53
2023-01-20T07:45:40.621Z,14.47
2023-01-20T07:48:07.920Z,15.93
2023-01-20T07:50:35.704Z,16.50
2023-01-20T07:53:02.660Z,17.20
2023-01-20T07:55:29.290Z,16.93
2023-01-20T07:57:56.215Z,15.43
2023-01-20T08:00:23.158Z,16.70
2023-01-20T08:02:50.178Z,16.60
2023-01-20T08:05:17.253Z,18.40
2023-01-20T08:07:43.956Z,16.40
2023-01-20T08:10:10.669Z,18.53
2023-01-20T08:12:37.266Z,16.40
2023-01-20T08:15:04.301Z,15.50
2023-01-20T08:17:31.202Z,14.70
2023-01-20T08:19:57.761Z,15.77
2023-01-20T08:22:25.496Z,14.60
2023-01-20T08:24:52.067Z,14.30
2023-01-20T08:27:19.657Z,14.00
2023-01-20T08:29:46.378Z,13.87
2023-01-20T08:32:12.975Z,12.43
2023-01-20T08:34:39.548Z,12.90
2023-01-20T08:37:06.166Z,14.80
2023-01-20T08:39:32.826Z,13.93
2023-01-20T08:41:59.479Z,13.53
2023-01-20T08:44:26.156Z,12.70
2023-01-20T08:46:55.039Z,11.77
2023-01-20T08:49:23.310Z,12.07
2023-01-20T08:51:50.114Z,11.43
2023-01-20T08:54:16.992Z,12.70
2023-01-20T08:56:43.661Z,11.23
2023-01-20T08:59:10.884Z,11.10
2023-01-20T09:01:37.829Z,12.13
2023-01-20T09:04:06.990Z,12.80
2023-01-20T09:06:42.324Z,11.60
2023-01-20T09:09:09.491Z,11.73
2023-01-20T09:11:36.909Z,11.50
2023-01-20T09:14:03.661Z,12.07
2023-01-20T09:16:30.250Z,11.47
2023-01-20T09:18:56.821Z,11.20
2023-01-20T09:21:23.779Z,10.90
2023-01-20T09:23:50.481Z,11.80
2023-01-20T09:26:33.471Z,10.73
2023-01-20T09:29:09.598Z,11.43
2023-01-20T09:31:45.800Z,12.70
2023-01-20T09:34:19.079Z,11.03
2023-01-20T09:36:46.018Z,12.37
2023-01-20T09:39:33.076Z,11.33
2023-01-20T09:42:26.535Z,11.83
2023-01-20T09:44:57.190Z,12.17
2023-01-20T09:47:31.166Z,11.20
2023-01-20T09:50:50.566Z,11.97
2023-01-20T09:53:49.160Z,11.77
2023-01-20T09:56:19.381Z,11.87
2023-01-20T09:58:59.956Z,10.67
2023-01-20T10:01:50.910Z,10.33
2023-01-20T10:04:24.951Z,11.53
2023-01-20T10:07:07.109Z,10.77
2023-01-20T10:10:01.121Z,11.30
2023-01-20T10:12:33.374Z,9.60
2023-01-20T10:14:59.925Z,9.57
2023-01-20T10:17:53.409Z,9.97
2023-01-20T10:20:40.955Z,10.97
2023-01-20T10:23:31.207Z,11.33
2023-01-20T10:26:25.480Z,11.00
2023-01-20T10:28:59.939Z,10.93
2023-01-20T10:31:30.605Z,11.17
2023-01-20T10:34:04.380Z,11.53
2023-01-20T10:36:31.378Z,12.13
2023-01-20T10:39:25.193Z,12.70
2023-01-20T10:42:18.370Z,11.90
2023-01-20T10:44:46.917Z,11.43
2023-01-20T10:47:39.287Z,11.33
2023-01-20T10:50:33.547Z,12.50
2023-01-20T10:53:29.202Z,12.00
2023-01-20T10:56:35.043Z,11.37
2023-01-20T10:59:17.318Z,12.83
2023-01-20T11:01:51.893Z,13.70
2023-01-20T11:04:22.908Z,12.40
2023-01-20T11:06:54.471Z,11.13
2023-01-20T11:09:34.242Z,10.00
2023-01-20T11:12:03.952Z,9.17
2023-01-20T11:14:31.534Z,9.80
2023-01-20T11:17:05.423Z,10.80
2023-01-20T11:20:05.086Z,9.97
2023-01-20T11:22:47.451Z,9.87
2023-01-20T11:25:32.610Z,9.80
2023-01-20T11:27:59.620Z,10.30
2023-01-20T11:30:32.833Z,10.37
2023-01-20T11:33:39.137Z,9.80
2023-01-20T11:36:18.956Z,10.00
2023-01-20T11:38:48.931Z,10.20
2023-01-20T11:41:29.752Z,9.00
2023-01-20T11:43:58.498Z,9.80
2023-01-20T11:46:32.029Z,11.37
2023-01-20T11:49:15.894Z,9.80
2023-01-20T11:52:02.044Z,10.50
2023-01-20T11:54:30.133Z,10.93
2023-01-20T11:57:04.669Z,11.10
2023-01-20T11:59:34.841Z,10.50
2023-01-20T12:02:07.303Z,11.17
2023-01-20T12:04:56.273Z,9.97
2023-01-20T12:07:39.546Z,10.00
2023-01-20T12:10:27.154Z,12.30
2023-01-20T12:13:02.846Z,12.70
2023-01-20T12:15:37.343Z,13.00
2023-01-20T12:18:10.360Z,12.10
2023-01-20T12:20:55.518Z,11.50
2023-01-20T12:23:53.739Z,12.60
2023-01-20T12:26:23.290Z,12.87
2023-01-20T12:29:28.990Z,12.83
2023-01-20T12:31:55.628Z,12.17
2023-01-20T12:34:30.351Z,13.43
2023-01-20T12:36:56.859Z,13.83
2023-01-20T12:39:47.286Z,13.87
2023-01-20T12:42:34.171Z,14.03
2023-01-20T12:45:24.915Z,12.87
2023-01-20T12:48:24.775Z,14.20
2023-01-20T12:51:16.298Z,13.47
2023-01-20T12:54:03.328Z,14.00
2023-01-20T12:56:54.587Z,14.60
2023-01-20T12:59:50.310Z,13.40
2023-01-20T13:02:18.600Z,13.70
2023-01-20T13:05:11.486Z,13.13
2023-01-20T13:07:59.741Z,12.70
2023-01-20T13:10:57.193Z,14.17
2023-01-20T13:13:57.881Z,12.10
2023-01-20T13:16:49.468Z,11.50
2023-01-20T13:19:24.065Z,10.60
2023-01-20T13:22:03.063Z,10.63
2023-01-20T13:24:34.864Z,11.87
2023-01-20T13:27:02.571Z,11.37
2023-01-20T13:29:51.765Z,11.00
2023-01-20T13:32:35.655Z,11.43
2023-01-20T13:35:15.603Z,12.00
2023-01-20T13:37:50.486Z,9.83
2023-01-20T13:40:35.551Z,11.70
2023-01-20T13:43:03.651Z,11.53
2023-01-20T13:45:30.851Z,13.10
2023-01-20T13:48:05.412Z,12.27
2023-01-20T13:50:33.589Z,11.83
2023-01-20T13:53:00.146Z,12.37
2023-01-20T13:55:31.041Z,11.30
2023-01-20T13:57:57.721Z,11.93
2023-01-20T14:00:24.306Z,10.60
2023-01-20T14:02:51.266Z,11.43
2023-01-20T14:05:29.853Z,10.57
2023-01-20T14:07:57.316Z,10.57
2023-01-20T14:10:24.257Z,11.37
2023-01-20T14:12:50.854Z,11.43
2023-01-20T14:15:27.010Z,11.30
2023-01-20T14:17:55.680Z,11.17
2023-01-20T14:20:23.802Z,10.27
2023-01-20T14:22:50.779Z,9.63
2023-01-20T14:25:27.188Z,10.23
2023-01-20T14:27:53.843Z,8.80
2023-01-20T14:30:26.645Z,8.30
2023-01-20T14:32:53.909Z,7.67
2023-01-20T14:35:28.869Z,8.47
2023-01-20T14:37:55.567Z,7.40
2023-01-20T14:40:37.250Z,7.57
2023-01-20T14:43:22.369Z,7.60
2023-01-20T14:45:51.539Z,7.50
2023-01-20T14:48:33.028Z,8.27
2023-01-20T14:51:03.921Z,9.00
2023-01-20T14:53:30.483Z,9.90
2023-01-20T14:56:01.602Z,8.20
2023-01-20T14:58:31.651Z,8.27
2023-01-20T15:01:04.665Z,7.10
2023-01-20T15:03:31.855Z,10.90
2023-01-20T15:06:10.715Z,8.00
2023-01-20T15:08:37.450Z,9.67
2023-01-20T15:11:10.209Z,10.93
2023-01-20T15:13:38.706Z,9.67
2023-01-20T15:16:18.451Z,9.60
2023-01-20T15:19:20.473Z,8.80
2023-01-20T15:21:49.254Z,9.07
2023-01-20T15:24:20.303Z,10.27
2023-01-20T15:26:48.803Z,9.00
2023-01-20T15:29:31.340Z,9.70
2023-01-20T15:32:00.176Z,8.90
2023-01-20T15:34:28.045Z,9.20
2023-01-20T15:36:55.672Z,8.00
2023-01-20T15:39:25.750Z,7.57
2023-01-20T15:41:55.133Z,7.37
2023-01-20T15:44:24.161Z,7.27
2023-01-20T15:46:51.772Z,8.10
2023-01-20T15:49:18.578Z,7.40
2023-01-20T15:51:45.594Z,8.07
2023-01-20T15:54:13.628Z,8.87
2023-01-20T15:56:41.716Z,8.70
2023-01-20T15:59:16.612Z,7.50
2023-01-20T16:01:46.851Z,8.60
2023-01-20T16:04:13.485Z,8.87
2023-01-20T16:06:40.313Z,9.30
2023-01-20T16:09:16.876Z,9.47
2023-01-20T16:11:43.453Z,8.80
2023-01-20T16:14:10.011Z,10.13
2023-01-20T16:16:36.650Z,8.50
2023-01-20T16:19:04.591Z,9.47
2023-01-20T16:21:31.202Z,8.80
2023-01-20T16:23:57.785Z,9.43
2023-01-20T16:26:27.187Z,10.20
2023-01-20T16:28:56.376Z,9.10
2023-01-20T16:31:24.151Z,10.80
2023-01-20T16:33:52.681Z,9.87
2023-01-20T16:36:20.698Z,9.57
2023-01-20T16:38:48.811Z,10.57
2023-01-20T16:41:17.156Z,8.27
2023-01-20T16:43:43.805Z,8.97
2023-01-20T16:46:19.231Z,7.40
2023-01-20T16:48:46.015Z,8.50
2023-01-20T16:51:14.437Z,7.97
2023-01-20T16:53:41.341Z,8.97
2023-01-20T16:56:17.744Z,8.80
2023-01-20T16:58:47.091Z,7.40
2023-01-20T17:01:13.919Z,8.30
2023-01-20T17:03:41.992Z,9.23
2023-01-20T17:06:14.979Z,10.10
2023-01-20T17:08:47.042Z,9.43
2023-01-20T17:11:28.078Z,13.03
2023-01-20T17:13:55.855Z,19.63
2023-01-20T17:16:23.368Z,14.47
2023-01-20T17:18:51.464Z,11.57
2023-01-20T17:21:20.527Z,13.90
2023-01-20T17:23:56.371Z,15.13
2023-01-20T17:26:24.301Z,14.23
2023-01-20T17:28:55.121Z,18.80
2023-01-20T17:31:22.525Z,15.53
2023-01-20T17:33:50.248Z,13.47
2023-01-20T17:36:17.227Z,14.30
2023-01-20T17:38:44.350Z,12.53
2023-01-20T17:41:12.463Z,13.43
2023-01-20T17:43:45.849Z,13.30
2023-01-20T17:46:18.193Z,12.20
2023-01-20T17:48:45.956Z,12.27
2023-01-20T17:51:18.642Z,10.60
2023-01-20T17:53:45.272Z,11.60
2023-01-20T17:56:13.626Z,11.50
2023-01-20T17:58:41.866Z,11.80
2023-01-20T18:01:09.725Z,20.57
2023-01-20T18:03:36.460Z,16.53
2023-01-20T18:06:03.222Z,27.90
2023-01-20T18:08:29.853Z,29.83
2023-01-20T18:11:02.100Z,26.13
2023-01-20T18:13:28.812Z,20.90
2023-01-20T18:15:55.451Z,18.03
2023-01-20T18:18:23.168Z,17.20
2023-01-20T18:23:17.683Z,15.00
2023-01-20T18:25:44.283Z,14.43
2023-01-20T18:28:12.401Z,16.03
2023-01-20T18:30:38.999Z,13.63
2023-01-20T18:33:05.545Z,13.43
2023-01-20T18:35:32.135Z,12.53
2023-01-20T18:38:01.693Z,14.70
2023-01-20T18:40:28.418Z,13.10
2023-01-20T18:42:55.173Z,13.33
2023-01-20T18:45:21.773Z,13.70
2023-01-20T18:47:48.793Z,14.40
2023-01-20T18:50:16.375Z,14.87
2023-01-20T18:52:43.840Z,17.50
2023-01-20T18:55:10.431Z,15.60
2023-01-20T18:57:37.121Z,15.43
2023-01-20T19:00:04.318Z,16.93
2023-01-20T19:02:30.898Z,17.10
2023-01-20T19:04:57.500Z,17.87
2023-01-20T19:07:24.214Z,14.23
2023-01-20T19:09:50.855Z,15.50
2023-01-20T19:12:17.410Z,15.40
2023-01-20T19:14:44.024Z,15.50
2023-01-20T19:17:10.606Z,14.23
2023-01-20T19:19:37.213Z,14.50
2023-01-20T19:22:03.754Z,14.53
2023-01-20T19:24:30.455Z,14.70
2023-01-20T19:26:58.030Z,14.57
2023-01-20T19:29:29.032Z,15.47
2023-01-20T19:31:55.930Z,13.60
2023-01-20T19:34:22.598Z,14.63
2023-01-20T19:36:49.250Z,13.97
2023-01-20T19:39:16.145Z,13.47
2023-01-20T19:41:43.605Z,13.47
2023-01-20T19:44:10.919Z,13.30
2023-01-20T19:46:40.888Z,14.20
2023-01-20T19:49:07.888Z,13.83
2023-01-20T19:51:34.683Z,16.60
2023-01-20T19:54:01.937Z,15.90
2023-01-20T19:56:31.189Z,17.80
2023-01-20T19:59:00.554Z,17.27
2023-01-20T20:01:36.471Z,17.23
2023-01-20T20:04:12.621Z,15.53
2023-01-20T20:06:43.921Z,15.80
2023-01-20T20:09:15.499Z,16.83
2023-01-20T20:11:43.047Z,16.57
2023-01-20T20:14:13.701Z,16.30
2023-01-20T20:16:40.598Z,15.73
2023-01-20T20:19:08.863Z,15.47
2023-01-20T20:21:35.753Z,14.00
2023-01-20T20:24:03.943Z,14.10
2023-01-20T20:26:33.415Z,13.03
2023-01-20T20:29:01.320Z,16.40
2023-01-20T20:31:31.020Z,19.60
2023-01-20T20:33:59.064Z,17.20
2023-01-20T20:39:17.735Z,14.50
2023-01-20T20:41:45.001Z,16.10
2023-01-20T20:44:12.551Z,15.20
2023-01-20T20:46:39.268Z,15.00
2023-01-20T20:49:05.884Z,14.07
2023-01-20T20:51:34.107Z,13.33
2023-01-20T20:54:02.323Z,15.63
2023-01-20T20:56:32.946Z,16.00
2023-01-20T20:59:03.115Z,14.33
2023-01-20T21:01:32.774Z,13.17
2023-01-20T21:04:00.412Z,14.73
2023-01-20T21:06:27.624Z,14.93
2023-01-20T21:08:54.530Z,15.57
2023-01-20T21:11:23.894Z,14.87
2023-01-20T21:13:50.884Z,17.73
2023-01-20T21:16:21.890Z,14.73
2023-01-20T21:18:50.043Z,15.43
2023-01-20T21:21:19.191Z,15.73
2023-01-20T21:23:54.089Z,15.33
2023-01-20T21:26:21.378Z,14.73
2023-01-20T21:28:50.786Z,15.57
2023-01-20T21:31:20.860Z,13.40
2023-01-20T21:33:51.172Z,14.60
2023-01-20T21:36:17.779Z,15.73
2023-01-20T21:38:47.518Z,15.07
2023-01-20T21:41:15.016Z,15.90
2023-01-20T21:44:08.683Z,16.00
2023-01-20T21:46:39.304Z,15.67
2023-01-20T21:49:26.176Z,16.23
2023-01-20T21:52:11.546Z,14.90
2023-01-20T21:54:39.991Z,15.70
2023-01-20T21:57:06.909Z,13.90
2023-01-20T21:59:33.509Z,15.90
2023-01-20T22:02:00.089Z,16.10
2023-01-20T22:04:26.740Z,15.03
2023-01-20T22:06:53.333Z,15.13
2023-01-20T22:09:19.887Z,15.17
2023-01-20T22:11:46.557Z,15.60
2023-01-20T22:14:13.193Z,15.80
2023-01-20T22:16:39.813Z,16.07
2023-01-20T22:19:06.568Z,15.90
2023-01-20T22:21:33.565Z,15.57
2023-01-20T22:24:02.138Z,16.47
2023-01-20T22:26:28.739Z,16.47
2023-01-20T22:28:55.339Z,16.77
2023-01-20T22:31:23.762Z,16.73
2023-01-20T22:33:56.106Z,15.93
2023-01-20T22:36:23.670Z,16.77
2023-01-20T22:38:51.881Z,16.30
2023-01-20T22:41:19.362Z,16.13
2023-01-20T22:43:47.779Z,16.57
2023-01-20T22:46:16.677Z,16.20
2023-01-20T22:48:43.668Z,16.93
2023-01-20T22:51:16.093Z,16.10
2023-01-20T22:53:43.187Z,25.07
2023-01-20T22:56:21.692Z,31.67
2023-01-20T22:58:48.488Z,28.20
2023-01-20T23:01:21.154Z,29.97
2023-01-20T23:03:48.189Z,33.60
2023-01-20T23:06:15.196Z,27.80
2023-01-20T23:08:42.040Z,24.37
2023-01-20T23:11:15.037Z,22.60
2023-01-20T23:13:42.539Z,20.30
2023-01-20T23:16:14.305Z,22.40
2023-01-20T23:18:40.891Z,22.20
2023-01-20T23:21:07.532Z,21.53
2023-01-20T23:23:35.526Z,19.70
2023-01-20T23:26:04.049Z,19.57
2023-01-20T23:28:30.914Z,20.30
2023-01-20T23:31:02.577Z,18.90
2023-01-20T23:33:29.292Z,20.00
2023-01-20T23:35:55.842Z,17.23
2023-01-20T23:38:22.405Z,17.33
2023-01-20T23:40:49.210Z,18.50
2023-01-20T23:43:15.848Z,18.33
2023-01-20T23:45:42.633Z,18.37
2023-01-20T23:48:09.260Z,17.90
2023-01-20T23:50:35.928Z,17.37
2023-01-20T23:53:02.656Z,17.33
2023-01-20T23:55:29.276Z,17.53
2023-01-20T23:57:56.402Z,19.03
